Time;durP1;ratioP1;P1;durP2;ratioP2;P2;SDS_P1;SDS_P2;PMS_P1;PMS_P2;Temp;Humidity;BMP_temperature;BMP_pressure;BME280_temperature;BME280_humidity;BME280_pressure;Samples;Min_cycle;Max_cycle;Signal;HPM_P1;HPM_P2
2022/10/22 00:00:11;;;;;;;;;;;;;;;15.60;68.91;100502.28;1236905;24;647;-72
2022/10/22 00:01:01;;;;;;;;;;;;;;;15.59;68.61;100495.19;1237819;24;670;-72
2022/10/22 00:01:52;;;;;;;;;;;;;;;15.58;68.78;100501.59;1237813;24;615;-72
2022/10/22 00:02:42;;;;;;;;;;;;;;;15.59;68.59;100500.56;1237835;24;631;-71
2022/10/22 00:03:32;;;;;;;;;;;;;;;15.57;68.68;100499.91;1237757;23;619;-72
2022/10/22 00:04:23;;;;;;;;;;;;;;;15.56;68.83;100503.56;1237814;24;690;-72
2022/10/22 00:05:13;;;;;;;;;;;;;;;15.58;68.59;100504.28;1237730;24;642;-72
2022/10/22 00:06:04;;;;;;;;;;;;;;;15.58;68.65;100503.44;1237674;24;639;-72
2022/10/22 00:06:54;;;;;;;;;;;;;;;15.59;68.90;100503.25;1237825;24;701;-72
2022/10/22 00:07:45;;;;;;;;;;;;;;;15.59;69.10;100505.94;1237763;24;643;-73
2022/10/22 00:08:35;;;;;;;;;;;;;;;15.59;68.72;100505.94;1237809;24;714;-72
2022/10/22 00:09:25;;;;;;;;;;;;;;;15.58;68.99;100508.81;1237655;24;1908;-72
2022/10/22 00:10:17;;;;;;;;;;;;;;;15.59;68.92;100507.78;1237638;24;635;-72
2022/10/22 00:11:08;;;;;;;;;;;;;;;15.58;68.64;100504.28;1237845;23;636;-72
2022/10/22 00:11:58;;;;;;;;;;;;;;;15.59;68.83;100505.94;1237856;24;634;-72
2022/10/22 00:12:49;;;;;;;;;;;;;;;15.58;68.80;100498.91;1243343;23;658;-71
2022/10/22 00:13:39;;;;;;;;;;;;;;;15.59;68.78;100502.41;1243918;23;661;-72
2022/10/22 00:14:30;;;;;;;;;;;;;;;15.58;68.80;100498.91;1237911;23;607;-72
2022/10/22 00:15:20;;;;;;;;;;;;;;;15.57;68.59;100501.72;1237800;24;623;-72
2022/10/22 00:16:10;;;;;;;;;;;;;;;15.58;68.83;100503.44;1237719;24;728;-72
2022/10/22 00:17:01;;;;;;;;;;;;;;;15.58;68.50;100504.28;1237766;24;646;-72
2022/10/22 00:17:51;;;;;;;;;;;;;;;15.58;68.84;100509.66;1237723;24;623;-73
2022/10/22 00:18:42;;;;;;;;;;;;;;;15.59;68.80;100502.41;1237616;24;645;-72
2022/10/22 00:19:32;;;;;;;;;;;;;;;15.59;68.71;100503.25;1237841;24;635;-72
2022/10/22 00:20:23;;;;;;;;;;;;;;;15.58;68.94;100506.13;1237819;24;660;-72
2022/10/22 00:21:13;;;;;;;;;;;;;;;15.58;68.51;100503.44;1237640;24;650;-72
2022/10/22 00:22:07;;;;;;;;;;;;;;;15.57;68.91;100505.28;1237639;24;686;-72
2022/10/22 00:22:57;;;;;;;;;;;;;;;15.57;68.58;100502.56;1237738;23;775;-72
2022/10/22 00:23:48;;;;;;;;;;;;;;;15.57;69.13;100507.09;1237716;24;663;-71
2022/10/22 00:24:38;;;;;;;;;;;;;;;15.57;68.87;100507.94;1236902;24;639;-72
2022/10/22 00:25:29;;;;;;;;;;;;;;;15.58;69.01;100511.50;1237724;24;678;-72
2022/10/22 00:26:19;;;;;;;;;;;;;;;15.56;68.64;100511.63;1236935;24;690;-72
2022/10/22 00:27:10;;;;;;;;;;;;;;;15.56;68.98;100505.41;1237800;23;678;-72
2022/10/22 00:28:00;;;;;;;;;;;;;;;15.56;69.07;100511.63;1237725;23;690;-72
2022/10/22 00:28:51;;;;;;;;;;;;;;;15.57;69.10;100510.63;1237683;24;674;-72
2022/10/22 00:29:41;;;;;;;;;;;;;;;15.57;68.77;100510.63;1237774;23;654;-72
2022/10/22 00:30:31;;;;;;;;;;;;;;;15.58;69.02;100516.84;1237818;23;1014;-72
2022/10/22 00:31:22;;;;;;;;;;;;;;;15.56;68.79;100511.63;1237694;24;669;-72
2022/10/22 00:32:12;;;;;;;;;;;;;;;15.56;68.68;100514.31;1237711;24;666;-72
2022/10/22 00:33:03;;;;;;;;;;;;;;;15.56;68.48;100510.78;1237857;24;809;-72
2022/10/22 00:33:53;;;;;;;;;;;;;;;15.52;68.81;100512.84;1237154;24;693;-72
2022/10/22 00:34:44;;;;;;;;;;;;;;;15.54;68.87;100520.78;1237706;24;627;-72
2022/10/22 00:35:34;;;;;;;;;;;;;;;15.53;68.93;100514.56;1237791;24;694;-72
2022/10/22 00:36:24;;;;;;;;;;;;;;;15.54;69.39;100515.41;1242984;23;1220;-72
2022/10/22 00:37:15;;;;;;;;;;;;;;;15.56;68.59;100516.16;1242405;23;662;-72
2022/10/22 00:38:05;;;;;;;;;;;;;;;15.56;68.56;100517.00;1237038;24;745;-72
2022/10/22 00:38:56;;;;;;;;;;;;;;;15.56;68.57;100513.47;1237012;24;710;-72
2022/10/22 00:39:46;;;;;;;;;;;;;;;15.56;68.72;100521.53;1237807;24;650;-72
2022/10/22 00:40:37;;;;;;;;;;;;;;;15.55;68.96;100515.31;1237602;24;670;-72
2022/10/22 00:41:27;;;;;;;;;;;;;;;15.55;68.70;100509.03;1237803;23;649;-72
2022/10/22 00:42:17;;;;;;;;;;;;;;;15.55;68.75;100503.66;1237715;24;674;-72
2022/10/22 00:43:08;;;;;;;;;;;;;;;15.56;68.83;100514.31;1237797;24;646;-72
2022/10/22 00:43:58;;;;;;;;;;;;;;;15.55;68.78;100499.19;1237691;24;689;-72
2022/10/22 00:44:49;;;;;;;;;;;;;;;15.55;68.84;100501.00;1237691;24;674;-72
2022/10/22 00:45:39;;;;;;;;;;;;;;;15.55;68.96;100509.03;1237769;23;697;-72
2022/10/22 00:46:30;;;;;;;;;;;;;;;15.55;68.70;100507.25;1237751;23;615;-72
2022/10/22 00:47:20;;;;;;;;;;;;;;;15.56;68.83;100506.25;1237649;24;635;-72
2022/10/22 00:48:10;;;;;;;;;;;;;;;15.55;68.58;100511.72;1237300;23;634;-72
2022/10/22 00:49:01;;;;;;;;;;;;;;;15.55;69.35;100506.34;1237751;23;663;-72
2022/10/22 00:49:51;;;;;;;;;;;;;;;15.55;68.90;100504.56;1237689;24;671;-72
2022/10/22 00:50:42;;;;;;;;;;;;;;;15.55;68.61;100512.63;1237712;24;611;-72
2022/10/22 00:51:32;;;;;;;;;;;;;;;15.55;69.27;100509.03;1237703;24;639;-72
2022/10/22 00:52:23;;;;;;;;;;;;;;;15.54;69.32;100512.72;1237581;24;670;-72
2022/10/22 00:53:13;;;;;;;;;;;;;;;15.55;68.67;100509.94;1237695;24;662;-72
2022/10/22 00:54:03;;;;;;;;;;;;;;;15.54;68.79;100513.56;1237792;24;678;-72
2022/10/22 00:54:54;;;;;;;;;;;;;;;15.55;68.86;100509.03;1237557;24;655;-72
2022/10/22 00:55:44;;;;;;;;;;;;;;;15.52;69.23;100515.53;1237784;23;650;-73
2022/10/22 00:56:35;;;;;;;;;;;;;;;15.52;68.71;100510.16;1237721;24;679;-72
2022/10/22 00:57:25;;;;;;;;;;;;;;;15.49;69.41;100509.59;1237707;24;840;-72
2022/10/22 00:58:16;;;;;;;;;;;;;;;15.48;69.00;100508.75;1237594;24;674;-72
2022/10/22 00:59:06;;;;;;;;;;;;;;;15.50;68.90;100516.66;1237009;24;650;-72
2022/10/22 00:59:56;;;;;;;;;;;;;;;15.50;68.90;100512.13;1237426;24;637;-72
2022/10/22 01:00:47;;;;;;;;;;;;;;;15.51;68.87;100516.53;1237667;24;631;-72
2022/10/22 01:01:37;;;;;;;;;;;;;;;15.52;69.24;100515.53;1243133;23;646;-72
2022/10/22 01:02:28;;;;;;;;;;;;;;;15.51;69.19;100511.16;1243884;23;634;-72
2022/10/22 01:03:18;;;;;;;;;;;;;;;15.52;68.83;100520.91;1237053;24;654;-72
2022/10/22 01:04:09;;;;;;;;;;;;;;;15.52;68.99;100515.53;1237813;24;657;-72
2022/10/22 01:04:59;;;;;;;;;;;;;;;15.52;68.97;100520.06;1237673;23;610;-73
2022/10/22 01:05:49;;;;;;;;;;;;;;;15.52;69.00;100512.84;1237687;24;677;-72
2022/10/22 01:06:40;;;;;;;;;;;;;;;15.53;68.92;100522.59;1237661;24;682;-72
2022/10/22 01:07:30;;;;;;;;;;;;;;;15.52;69.11;100523.59;1237820;23;666;-72
2022/10/22 01:08:21;;;;;;;;;;;;;;;15.53;69.16;100513.69;1237717;24;658;-72
2022/10/22 01:09:12;;;;;;;;;;;;;;;15.52;69.02;100515.53;1237627;24;1940;-72
2022/10/22 01:10:02;;;;;;;;;;;;;;;15.51;69.12;100513.00;1236904;24;697;-72
2022/10/22 01:10:53;;;;;;;;;;;;;;;15.51;68.77;100513.84;1237630;24;654;-72
2022/10/22 01:11:43;;;;;;;;;;;;;;;15.53;68.95;100516.38;1237654;24;658;-72
2022/10/22 01:12:33;;;;;;;;;;;;;;;15.51;69.50;100519.22;1237646;23;670;-72
2022/10/22 01:13:24;;;;;;;;;;;;;;;15.50;69.04;100516.66;1237744;23;678;-72
2022/10/22 01:14:14;;;;;;;;;;;;;;;15.50;69.32;100522.03;1237722;24;634;-72
2022/10/22 01:15:05;;;;;;;;;;;;;;;15.50;69.30;100525.56;1243285;23;809;-72
2022/10/22 01:15:55;;;;;;;;;;;;;;;15.50;69.00;100522.88;1242378;23;702;-72
2022/10/22 01:16:45;;;;;;;;;;;;;;;15.50;69.16;100517.50;1236936;24;760;-72
2022/10/22 01:17:36;;;;;;;;;;;;;;;15.51;68.77;100524.59;1237640;23;682;-72
2022/10/22 01:18:26;;;;;;;;;;;;;;;15.51;68.81;100518.34;1237585;24;698;-72
2022/10/22 01:19:17;;;;;;;;;;;;;;;15.52;69.25;100526.28;1237727;24;607;-72
2022/10/22 01:20:07;;;;;;;;;;;;;;;15.50;68.90;100525.56;1243185;23;642;-72
2022/10/22 01:20:58;;;;;;;;;;;;;;;15.49;69.24;100534.59;1243921;23;630;-72
2022/10/22 01:21:48;;;;;;;;;;;;;;;15.48;69.42;100534.75;1238685;23;603;-72
2022/10/22 01:22:39;;;;;;;;;;;;;;;15.42;69.61;100522.72;1237562;23;645;-72
2022/10/22 01:23:29;;;;;;;;;;;;;;;15.41;69.31;100536.28;1237630;24;740;-72
2022/10/22 01:24:19;;;;;;;;;;;;;;;15.42;69.43;100533.44;1237641;24;619;-72
2022/10/22 01:25:10;;;;;;;;;;;;;;;15.43;69.10;100534.31;1237758;24;627;-72
2022/10/22 01:26:00;;;;;;;;;;;;;;;15.42;69.36;100532.59;1237039;24;658;-72
2022/10/22 01:26:51;;;;;;;;;;;;;;;15.46;69.26;100528.66;1237608;24;663;-72
2022/10/22 01:27:41;;;;;;;;;;;;;;;15.45;69.52;100524.28;1237735;24;669;-72
2022/10/22 01:28:32;;;;;;;;;;;;;;;15.43;69.18;100527.09;1237478;24;685;-72
2022/10/22 01:29:22;;;;;;;;;;;;;;;15.43;68.92;100528.94;1237620;24;1923;-72
2022/10/22 01:30:12;;;;;;;;;;;;;;;15.45;69.07;100524.28;1237620;24;708;-72
2022/10/22 01:31:03;;;;;;;;;;;;;;;15.44;69.16;100528.78;1237459;24;639;-72
2022/10/22 01:31:53;;;;;;;;;;;;;;;15.44;69.30;100518.06;1237060;24;685;-72
2022/10/22 01:32:44;;;;;;;;;;;;;;;15.44;69.17;100531.47;1237617;24;635;-72
2022/10/22 01:33:35;;;;;;;;;;;;;;;15.44;69.10;100528.78;1236648;24;651;-72
2022/10/22 01:34:25;;;;;;;;;;;;;;;15.47;69.26;100538.41;1237680;24;1205;-72
2022/10/22 01:35:15;;;;;;;;;;;;;;;15.48;68.97;100522.16;1237615;24;626;-73
2022/10/22 01:36:06;;;;;;;;;;;;;;;15.50;69.26;100528.25;1237543;24;1240;-72
2022/10/22 01:36:56;;;;;;;;;;;;;;;15.47;69.11;100523.16;1237658;24;654;-73
2022/10/22 01:37:47;;;;;;;;;;;;;;;15.47;69.26;100515.09;1237758;24;603;-72
2022/10/22 01:38:37;;;;;;;;;;;;;;;15.47;69.12;100523.16;1237538;24;646;-73
2022/10/22 01:39:28;;;;;;;;;;;;;;;15.50;69.00;100528.25;1243062;23;667;-72
2022/10/22 01:40:18;;;;;;;;;;;;;;;15.49;69.05;100525.69;1242426;23;678;-72
2022/10/22 01:41:09;;;;;;;;;;;;;;;15.48;69.01;100522.16;1237119;24;682;-72
2022/10/22 01:42:00;;;;;;;;;;;;;;;15.48;69.20;100519.47;1236889;24;756;-72
2022/10/22 01:42:50;;;;;;;;;;;;;;;15.47;68.93;100523.16;1237655;24;683;-72
2022/10/22 01:43:41;;;;;;;;;;;;;;;15.48;68.94;100530.22;1237610;24;635;-72
2022/10/22 01:44:31;;;;;;;;;;;;;;;15.48;69.21;100519.47;1237656;24;654;-72
2022/10/22 01:45:21;;;;;;;;;;;;;;;15.48;68.97;100522.16;1237598;24;674;-72
2022/10/22 01:46:12;;;;;;;;;;;;;;;15.47;69.51;100523.16;1237077;24;615;-72
2022/10/22 01:47:02;;;;;;;;;;;;;;;15.47;69.12;100523.16;1237630;24;693;-73
2022/10/22 01:47:53;;;;;;;;;;;;;;;15.48;68.96;100521.31;1237744;24;654;-73
2022/10/22 01:48:43;;;;;;;;;;;;;;;15.48;69.00;100524.00;1237691;24;698;-73
2022/10/22 01:49:34;;;;;;;;;;;;;;;15.48;69.23;100530.22;1237444;24;1945;-72
2022/10/22 01:50:24;;;;;;;;;;;;;;;15.48;69.00;100524.84;1237655;24;646;-72
2022/10/22 01:51:14;;;;;;;;;;;;;;;15.47;69.13;100517.78;1237610;24;643;-73
2022/10/22 01:52:05;;;;;;;;;;;;;;;15.46;69.06;100516.09;1237732;24;635;-72
2022/10/22 01:52:55;;;;;;;;;;;;;;;15.48;69.07;100516.81;1237660;24;670;-72
2022/10/22 01:53:46;;;;;;;;;;;;;;;15.47;68.98;100512.41;1237642;24;658;-72
2022/10/22 01:54:36;;;;;;;;;;;;;;;15.47;69.15;100516.94;1237637;24;662;-72
2022/10/22 01:55:27;;;;;;;;;;;;;;;15.47;69.14;100517.78;1237661;24;641;-72
2022/10/22 01:56:17;;;;;;;;;;;;;;;15.48;69.11;100510.56;1237601;24;658;-72
2022/10/22 01:57:07;;;;;;;;;;;;;;;15.47;68.79;100507.03;1237627;24;640;-72
2022/10/22 01:57:58;;;;;;;;;;;;;;;15.46;69.38;100508.03;1237619;24;667;-72
2022/10/22 01:58:48;;;;;;;;;;;;;;;15.47;69.04;100511.56;1237716;24;682;-72
2022/10/22 01:59:39;;;;;;;;;;;;;;;15.46;69.14;100510.72;1237577;24;724;-72
2022/10/22 02:00:29;;;;;;;;;;;;;;;15.44;68.64;100507.31;1237049;24;651;-73
2022/10/22 02:01:20;;;;;;;;;;;;;;;15.45;69.10;100506.31;1243106;23;635;-73
2022/10/22 02:02:10;;;;;;;;;;;;;;;15.46;69.17;100512.56;1242213;23;729;-72
2022/10/22 02:03:00;;;;;;;;;;;;;;;15.42;69.40;100514.66;1236930;24;651;-72
2022/10/22 02:03:51;;;;;;;;;;;;;;;15.41;69.22;100507.59;1237629;24;600;-72
2022/10/22 02:04:41;;;;;;;;;;;;;;;15.39;69.50;100503.38;1237577;24;666;-72
2022/10/22 02:05:32;;;;;;;;;;;;;;;15.40;69.20;100505.91;1237539;24;623;-73
2022/10/22 02:06:22;;;;;;;;;;;;;;;15.43;69.24;100500.25;1237664;24;686;-72
2022/10/22 02:07:13;;;;;;;;;;;;;;;15.44;69.33;100499.25;1237479;24;647;-72
2022/10/22 02:08:03;;;;;;;;;;;;;;;15.44;69.19;100507.31;1238429;23;721;-72
2022/10/22 02:08:53;;;;;;;;;;;;;;;15.42;69.20;100501.22;1237499;24;659;-72
2022/10/22 02:09:44;;;;;;;;;;;;;;;15.43;69.13;100508.31;1237566;24;719;-72
2022/10/22 02:10:34;;;;;;;;;;;;;;;15.42;69.13;100503.91;1237628;24;690;-72
2022/10/22 02:11:25;;;;;;;;;;;;;;;15.43;69.49;100505.63;1237676;24;558;-72
2022/10/22 02:12:15;;;;;;;;;;;;;;;15.43;69.24;100494.88;1237873;24;619;-72
2022/10/22 02:13:06;;;;;;;;;;;;;;;15.43;69.27;100507.44;1238018;24;623;-73
2022/10/22 02:13:56;;;;;;;;;;;;;;;15.43;69.41;100505.63;1237958;24;675;-72
2022/10/22 02:14:46;;;;;;;;;;;;;;;15.42;69.14;100503.91;1237989;24;635;-72
2022/10/22 02:15:37;;;;;;;;;;;;;;;15.44;68.91;100503.78;1237969;24;641;-72
2022/10/22 02:16:27;;;;;;;;;;;;;;;15.45;69.07;100494.75;1238023;24;686;-72
2022/10/22 02:17:18;;;;;;;;;;;;;;;15.45;69.00;100502.78;1237900;24;652;-72
2022/10/22 02:18:08;;;;;;;;;;;;;;;15.45;69.09;100497.41;1237970;24;725;-72
2022/10/22 02:18:59;;;;;;;;;;;;;;;15.45;68.81;100502.78;1237983;24;823;-73
2022/10/22 02:19:49;;;;;;;;;;;;;;;15.42;69.33;100503.91;1238019;24;760;-72
2022/10/22 02:20:40;;;;;;;;;;;;;;;15.39;69.29;100496.16;1237856;24;646;-72
2022/10/22 02:21:30;;;;;;;;;;;;;;;15.40;69.12;100497.88;1238036;24;663;-72
2022/10/22 02:22:20;;;;;;;;;;;;;;;15.41;69.09;100496.00;1237940;24;635;-72
2022/10/22 02:23:11;;;;;;;;;;;;;;;15.39;69.44;100504.22;1237923;24;678;-72
2022/10/22 02:24:01;;;;;;;;;;;;;;;15.39;69.50;100501.53;1243438;23;721;-72
2022/10/22 02:24:52;;;;;;;;;;;;;;;15.41;69.20;100504.91;1242608;23;631;-73
2022/10/22 02:25:42;;;;;;;;;;;;;;;15.40;69.21;100489.81;1238382;23;701;-72
2022/10/22 02:26:33;;;;;;;;;;;;;;;15.39;69.37;100498.00;1236811;24;623;-72
2022/10/22 02:27:23;;;;;;;;;;;;;;;15.40;69.53;100495.19;1237117;24;730;-73
2022/10/22 02:28:14;;;;;;;;;;;;;;;15.38;69.02;100496.31;1243437;23;697;-72
2022/10/22 02:29:04;;;;;;;;;;;;;;;15.39;69.47;100501.53;1242702;23;624;-72
2022/10/22 02:29:54;;;;;;;;;;;;;;;15.39;69.28;100498.00;1236886;24;698;-73
2022/10/22 02:30:45;;;;;;;;;;;;;;;15.38;69.23;100502.53;1237838;24;627;-73
2022/10/22 02:31:35;;;;;;;;;;;;;;;15.37;69.28;100498.13;1237976;24;690;-72
2022/10/22 02:32:26;;;;;;;;;;;;;;;15.39;69.17;100498.84;1238024;24;679;-73
2022/10/22 02:33:16;;;;;;;;;;;;;;;15.37;69.81;100497.28;1237946;24;674;-73
2022/10/22 02:34:07;;;;;;;;;;;;;;;15.34;69.40;100495.72;1237934;24;647;-72
2022/10/22 02:34:58;;;;;;;;;;;;;;;15.33;69.56;100496.72;1237250;24;722;-72
2022/10/22 02:35:48;;;;;;;;;;;;;;;15.35;69.73;100496.56;1243282;23;712;-72
2022/10/22 02:36:39;;;;;;;;;;;;;;;15.37;69.54;100502.66;1242688;23;726;-72
2022/10/22 02:37:29;;;;;;;;;;;;;;;15.34;69.45;100495.72;1237417;24;698;-72
2022/10/22 02:38:19;;;;;;;;;;;;;;;15.35;69.45;100499.25;1237909;24;705;-72
2022/10/22 02:39:10;;;;;;;;;;;;;;;15.34;69.30;100500.25;1237993;24;662;-72
2022/10/22 02:40:00;;;;;;;;;;;;;;;15.32;69.79;100497.69;1238012;24;702;-73
2022/10/22 02:40:51;;;;;;;;;;;;;;;15.34;69.73;100500.25;1237881;24;666;-72
2022/10/22 02:41:41;;;;;;;;;;;;;;;15.30;69.72;100502.34;1237942;24;671;-72
2022/10/22 02:42:32;;;;;;;;;;;;;;;15.32;69.68;100505.75;1237941;24;684;-72
2022/10/22 02:43:22;;;;;;;;;;;;;;;15.32;70.01;100503.06;1237781;24;611;-72
2022/10/22 02:44:12;;;;;;;;;;;;;;;15.32;69.56;100508.44;1237341;24;697;-72
2022/10/22 02:45:03;;;;;;;;;;;;;;;15.36;69.69;100500.97;1237953;24;646;-72
2022/10/22 02:45:53;;;;;;;;;;;;;;;15.34;69.45;100498.41;1237860;24;698;-72
2022/10/22 02:46:44;;;;;;;;;;;;;;;15.31;69.89;100512.09;1237979;24;639;-72
2022/10/22 02:47:34;;;;;;;;;;;;;;;15.33;69.51;100509.28;1243423;23;650;-72
2022/10/22 02:48:25;;;;;;;;;;;;;;;15.35;69.49;100507.31;1242450;23;647;-72
2022/10/22 02:49:15;;;;;;;;;;;;;;;15.36;69.85;100504.50;1237357;24;1930;-72
2022/10/22 02:50:05;;;;;;;;;;;;;;;15.37;69.10;100503.50;1237884;24;724;-73
2022/10/22 02:50:56;;;;;;;;;;;;;;;15.37;69.38;100502.66;1237899;24;643;-72
2022/10/22 02:51:46;;;;;;;;;;;;;;;15.39;69.57;100509.59;1237961;24;646;-72
2022/10/22 02:52:37;;;;;;;;;;;;;;;15.36;69.34;100503.66;1237938;24;663;-72
2022/10/22 02:53:27;;;;;;;;;;;;;;;15.37;69.38;100510.72;1237775;24;682;-73
2022/10/22 02:54:18;;;;;;;;;;;;;;;15.38;68.91;100505.19;1237977;24;670;-72
2022/10/22 02:55:08;;;;;;;;;;;;;;;15.33;69.26;100507.44;1237918;24;747;-72
2022/10/22 02:55:58;;;;;;;;;;;;;;;15.33;69.46;100509.28;1237943;24;690;-73
2022/10/22 02:56:49;;;;;;;;;;;;;;;15.34;69.50;100509.16;1237918;24;639;-72
2022/10/22 02:57:39;;;;;;;;;;;;;;;15.31;69.51;100512.09;1237920;24;820;-72
2022/10/22 02:58:30;;;;;;;;;;;;;;;15.33;69.56;100511.97;1242760;23;638;-73
2022/10/22 02:59:20;;;;;;;;;;;;;;;15.32;69.30;100511.13;1242589;23;635;-72
2022/10/22 03:00:10;;;;;;;;;;;;;;;15.30;69.73;100515.78;1238297;23;693;-73
2022/10/22 03:01:01;;;;;;;;;;;;;;;15.32;69.50;100511.13;1236793;24;639;-73
2022/10/22 03:01:51;;;;;;;;;;;;;;;15.31;69.49;100517.47;1237191;24;651;-72
2022/10/22 03:02:42;;;;;;;;;;;;;;;15.31;69.53;100512.09;1238026;24;659;-72
2022/10/22 03:03:32;;;;;;;;;;;;;;;15.34;69.37;100516.34;1237870;24;686;-72
2022/10/22 03:04:23;;;;;;;;;;;;;;;15.32;69.38;100513.81;1237951;24;631;-72
2022/10/22 03:05:13;;;;;;;;;;;;;;;15.34;69.62;100508.28;1237910;24;725;-73
2022/10/22 03:06:03;;;;;;;;;;;;;;;15.37;69.51;100516.09;1237888;24;646;-72
2022/10/22 03:06:54;;;;;;;;;;;;;;;15.36;69.62;100519.75;1237878;24;674;-72
2022/10/22 03:07:44;;;;;;;;;;;;;;;15.33;69.56;100517.34;1237905;24;654;-72
2022/10/22 03:08:35;;;;;;;;;;;;;;;15.34;69.47;100510.97;1237850;24;686;-72
2022/10/22 03:09:25;;;;;;;;;;;;;;;15.36;69.38;100515.22;1243260;23;1893;-72
2022/10/22 03:10:16;;;;;;;;;;;;;;;15.35;69.60;100518.06;1242357;23;620;-72
2022/10/22 03:11:06;;;;;;;;;;;;;;;15.32;69.34;100513.81;1237144;24;666;-72
2022/10/22 03:11:56;;;;;;;;;;;;;;;15.33;69.40;100510.13;1237898;24;616;-72
2022/10/22 03:12:47;;;;;;;;;;;;;;;15.35;69.40;100515.38;1237833;24;674;-72
2022/10/22 03:13:37;;;;;;;;;;;;;;;15.33;69.65;100523.56;1237987;24;682;-72
2022/10/22 03:14:28;;;;;;;;;;;;;;;15.27;69.75;100521.41;1237785;24;662;-72
2022/10/22 03:15:18;;;;;;;;;;;;;;;15.28;69.69;100513.22;1238013;23;709;-72
2022/10/22 03:16:09;;;;;;;;;;;;;;;15.30;69.87;100523.81;1237808;24;678;-72
2022/10/22 03:16:59;;;;;;;;;;;;;;;15.30;69.39;100513.09;1237831;24;646;-72
2022/10/22 03:17:50;;;;;;;;;;;;;;;15.30;69.83;100515.78;1237922;24;641;-72
2022/10/22 03:18:40;;;;;;;;;;;;;;;15.32;69.49;100512.94;1238009;23;649;-73
2022/10/22 03:19:30;;;;;;;;;;;;;;;15.34;69.60;100522.56;1237873;24;686;-72
2022/10/22 03:20:21;;;;;;;;;;;;;;;15.34;69.48;100511.84;1237866;24;631;-72
2022/10/22 03:21:11;;;;;;;;;;;;;;;15.30;69.79;100521.13;1238005;24;669;-73
2022/10/22 03:22:02;;;;;;;;;;;;;;;15.30;69.77;100515.78;1237039;24;615;-72
2022/10/22 03:22:52;;;;;;;;;;;;;;;15.27;69.51;100513.34;1237991;24;801;-73
2022/10/22 03:23:42;;;;;;;;;;;;;;;15.27;69.93;100516.88;1237856;24;654;-72
2022/10/22 03:24:33;;;;;;;;;;;;;;;15.26;69.83;100515.19;1237044;24;634;-72
2022/10/22 03:25:23;;;;;;;;;;;;;;;15.25;70.02;100513.50;1237814;24;678;-72
2022/10/22 03:26:14;;;;;;;;;;;;;;;15.24;70.08;100513.63;1238020;23;650;-72
2022/10/22 03:27:04;;;;;;;;;;;;;;;15.27;69.62;100524.09;1237916;24;709;-72
2022/10/22 03:27:55;;;;;;;;;;;;;;;15.27;69.78;100522.25;1237323;24;684;-72
2022/10/22 03:28:47;;;;;;;;;;;;;;;15.26;69.88;100517.03;1237915;23;669;-72
2022/10/22 03:29:38;;;;;;;;;;;;;;;15.22;70.16;100516.47;1236973;24;1886;-73
2022/10/22 03:30:28;;;;;;;;;;;;;;;15.22;70.12;100512.94;1237048;24;682;-72
2022/10/22 03:31:18;;;;;;;;;;;;;;;15.25;69.84;100521.53;1237958;24;694;-72
2022/10/22 03:32:09;;;;;;;;;;;;;;;15.27;69.55;100526.78;1243369;23;710;-72
2022/10/22 03:32:59;;;;;;;;;;;;;;;15.29;69.81;100522.97;1242647;23;658;-72
2022/10/22 03:33:50;;;;;;;;;;;;;;;15.27;69.76;100518.72;1238972;23;698;-72
2022/10/22 03:34:40;;;;;;;;;;;;;;;15.27;69.74;100516.88;1237817;24;651;-72
2022/10/22 03:35:31;;;;;;;;;;;;;;;15.28;69.69;100525.78;1237886;23;611;-72
2022/10/22 03:36:21;;;;;;;;;;;;;;;15.29;69.83;100517.59;1237701;24;1146;-72
2022/10/22 03:37:11;;;;;;;;;;;;;;;15.27;69.92;100521.41;1237791;24;631;-72
2022/10/22 03:38:02;;;;;;;;;;;;;;;15.27;69.77;100526.78;1237943;24;670;-73
2022/10/22 03:38:52;;;;;;;;;;;;;;;15.28;69.64;100525.78;1237733;24;776;-72
2022/10/22 03:39:43;;;;;;;;;;;;;;;15.29;69.61;100524.81;1237804;24;629;-72
2022/10/22 03:40:33;;;;;;;;;;;;;;;15.32;69.45;100523.69;1237892;23;713;-72
2022/10/22 03:41:24;;;;;;;;;;;;;;;15.33;69.23;100533.44;1237915;24;670;-72
2022/10/22 03:42:15;;;;;;;;;;;;;;;15.32;69.36;100529.91;1237186;24;682;-72
2022/10/22 03:43:05;;;;;;;;;;;;;;;15.32;69.45;100529.91;1237019;24;626;-72
2022/10/22 03:43:56;;;;;;;;;;;;;;;15.33;69.51;100531.59;1237755;24;650;-72
2022/10/22 03:44:46;;;;;;;;;;;;;;;15.29;69.80;100533.72;1237987;23;642;-72
2022/10/22 03:45:37;;;;;;;;;;;;;;;15.27;69.63;100533.00;1237661;24;650;-72
2022/10/22 03:46:27;;;;;;;;;;;;;;;15.28;69.70;100523.13;1237800;24;647;-73
2022/10/22 03:47:18;;;;;;;;;;;;;;;15.28;69.77;100540.06;1237778;23;634;-72
2022/10/22 03:48:08;;;;;;;;;;;;;;;15.26;69.77;100525.06;1237749;23;794;-72
2022/10/22 03:48:59;;;;;;;;;;;;;;;15.23;70.01;100533.41;1237907;23;622;-72
2022/10/22 03:49:49;;;;;;;;;;;;;;;15.22;69.66;100529.91;1237912;23;615;-72
2022/10/22 03:50:39;;;;;;;;;;;;;;;15.20;69.57;100531.03;1237754;24;639;-73
2022/10/22 03:51:30;;;;;;;;;;;;;;;15.19;70.05;100535.53;1237773;24;678;-72
2022/10/22 03:52:20;;;;;;;;;;;;;;;15.18;70.19;100533.00;1237842;24;651;-72
2022/10/22 03:53:11;;;;;;;;;;;;;;;15.19;70.17;100530.16;1237831;23;625;-72
2022/10/22 03:54:01;;;;;;;;;;;;;;;15.20;70.83;100531.03;1237810;24;674;-72
2022/10/22 03:54:51;;;;;;;;;;;;;;;15.20;70.04;100536.38;1243379;23;654;-72
2022/10/22 03:55:42;;;;;;;;;;;;;;;15.24;69.81;100537.78;1242448;23;655;-73
2022/10/22 03:56:32;;;;;;;;;;;;;;;15.26;69.84;100538.50;1238235;23;669;-72
2022/10/22 03:57:24;;;;;;;;;;;;;;;15.26;69.64;100535.81;1237884;24;642;-73
2022/10/22 03:58:14;;;;;;;;;;;;;;;15.28;69.60;100533.84;1236969;24;718;-72
2022/10/22 03:59:05;;;;;;;;;;;;;;;15.28;69.48;100528.47;1238742;23;635;-72
2022/10/22 03:59:55;;;;;;;;;;;;;;;15.28;69.64;100542.75;1237771;23;648;-73
2022/10/22 04:00:46;;;;;;;;;;;;;;;15.30;69.54;100539.94;1237736;24;690;-73
2022/10/22 04:01:36;;;;;;;;;;;;;;;15.29;69.54;100541.78;1237748;24;627;-73
2022/10/22 04:02:26;;;;;;;;;;;;;;;15.30;69.63;100534.56;1237915;23;698;-72
2022/10/22 04:03:17;;;;;;;;;;;;;;;15.31;69.55;100538.09;1237795;24;655;-72
2022/10/22 04:04:07;;;;;;;;;;;;;;;15.31;69.67;100540.78;1237809;23;670;-72
2022/10/22 04:04:58;;;;;;;;;;;;;;;15.31;69.53;100541.63;1237746;24;655;-72
2022/10/22 04:05:48;;;;;;;;;;;;;;;15.29;69.62;100535.56;1237764;24;694;-72
2022/10/22 04:06:39;;;;;;;;;;;;;;;15.29;69.56;100544.47;1237862;24;674;-72
2022/10/22 04:07:29;;;;;;;;;;;;;;;15.28;69.59;100545.44;1237816;24;683;-72
2022/10/22 04:08:19;;;;;;;;;;;;;;;15.26;69.73;100541.19;1237953;24;670;-72
2022/10/22 04:09:10;;;;;;;;;;;;;;;15.25;69.83;100544.84;1237803;24;659;-72
2022/10/22 04:10:00;;;;;;;;;;;;;;;15.26;69.62;100538.50;1237943;24;769;-72
2022/10/22 04:10:51;;;;;;;;;;;;;;;15.27;69.68;100546.41;1237844;24;686;-72
2022/10/22 04:11:41;;;;;;;;;;;;;;;15.29;69.75;100540.91;1237826;24;710;-72
2022/10/22 04:12:32;;;;;;;;;;;;;;;15.24;70.01;100543.16;1237716;24;638;-73
2022/10/22 04:13:22;;;;;;;;;;;;;;;15.21;70.31;100548.81;1237684;24;639;-72
2022/10/22 04:14:13;;;;;;;;;;;;;;;15.21;69.86;100538.09;1237736;24;662;-72
2022/10/22 04:15:03;;;;;;;;;;;;;;;15.21;69.93;100543.47;1237764;24;803;-72
2022/10/22 04:15:53;;;;;;;;;;;;;;;15.23;69.97;100547.69;1237799;24;670;-72
2022/10/22 04:16:44;;;;;;;;;;;;;;;15.25;69.71;100544.84;1237734;24;620;-72
2022/10/22 04:17:34;;;;;;;;;;;;;;;15.20;69.83;100545.28;1237663;24;658;-72
2022/10/22 04:18:25;;;;;;;;;;;;;;;15.22;69.69;100539.78;1237731;24;655;-72
2022/10/22 04:19:15;;;;;;;;;;;;;;;15.22;69.76;100550.53;1237685;24;667;-72
2022/10/22 04:20:06;;;;;;;;;;;;;;;15.22;69.82;100550.53;1237819;24;679;-72
2022/10/22 04:20:56;;;;;;;;;;;;;;;15.15;70.20;100541.31;1237687;24;640;-73
2022/10/22 04:21:46;;;;;;;;;;;;;;;15.13;69.94;100551.31;1237716;24;651;-72
2022/10/22 04:22:37;;;;;;;;;;;;;;;15.12;70.22;100547.78;1237670;24;643;-72
2022/10/22 04:23:27;;;;;;;;;;;;;;;15.17;70.27;100558.13;1237841;24;722;-72
2022/10/22 04:24:18;;;;;;;;;;;;;;;15.17;70.00;100550.06;1237760;24;644;-72
2022/10/22 04:25:08;;;;;;;;;;;;;;;15.17;70.07;100556.28;1238588;23;646;-71
2022/10/22 04:25:59;;;;;;;;;;;;;;;15.20;69.94;100547.13;1237697;24;635;-72